createdAt,value
2022-11-17T00:01:30.403Z,0.88
2022-11-17T00:03:58.424Z,0.73
2022-11-17T00:06:26.490Z,3.92
2022-11-17T00:08:54.481Z,0.35
2022-11-17T00:11:22.528Z,1.30
2022-11-17T00:14:09.487Z,4.78
2022-11-17T00:16:37.496Z,1.85
2022-11-17T00:19:23.488Z,1.65
2022-11-17T00:21:51.548Z,1.02
2022-11-17T00:24:19.600Z,1.23
2022-11-17T00:27:01.464Z,0.63
2022-11-17T00:29:31.612Z,2.33
2022-11-17T00:32:17.245Z,2.15
2022-11-17T00:34:45.467Z,0.38
2022-11-17T00:37:14.632Z,0.40
2022-11-17T00:39:42.707Z,0.60
2022-11-17T00:42:10.727Z,2.38
2022-11-17T00:44:40.098Z,0.55
2022-11-17T00:47:08.193Z,1.23
2022-11-17T00:49:36.835Z,0.38
2022-11-17T00:52:05.214Z,0.40
2022-11-17T00:54:33.309Z,0.95
2022-11-17T00:57:01.380Z,0.77
2022-11-17T00:59:29.414Z,0.28
2022-11-17T01:01:59.030Z,4.32
2022-11-17T01:04:27.130Z,1.02
2022-11-17T01:06:55.230Z,0.32
2022-11-17T01:09:24.963Z,4.28
2022-11-17T01:11:54.230Z,0.30
2022-11-17T01:14:25.770Z,3.70
2022-11-17T01:16:54.608Z,0.43
2022-11-17T01:19:24.774Z,0.65
2022-11-17T01:21:53.117Z,4.78
2022-11-17T01:24:21.208Z,2.08
2022-11-17T01:26:50.688Z,2.35
2022-11-17T01:29:19.195Z,3.75
2022-11-17T01:31:52.046Z,3.03
2022-11-17T01:34:20.300Z,5.03
2022-11-17T01:37:15.785Z,1.65
2022-11-17T01:39:44.241Z,1.80
2022-11-17T01:42:15.867Z,1.83
2022-11-17T01:44:58.883Z,0.63
2022-11-17T01:47:33.958Z,0.98
2022-11-17T01:50:07.473Z,1.75
2022-11-17T01:52:39.223Z,3.03
2022-11-17T01:55:09.963Z,2.67
2022-11-17T01:57:42.478Z,2.05
2022-11-17T02:00:12.398Z,0.82
2022-11-17T02:02:42.363Z,1.92
2022-11-17T02:05:21.470Z,0.77
2022-11-17T02:07:53.432Z,3.13
2022-11-17T02:10:22.102Z,2.47
2022-11-17T02:12:50.794Z,1.00
2022-11-17T02:15:18.808Z,2.47
2022-11-17T02:17:46.875Z,0.65
2022-11-17T02:20:18.072Z,2.50
2022-11-17T02:23:26.435Z,1.15
2022-11-17T02:26:31.885Z,0.45
2022-11-17T02:29:07.370Z,2.67
2022-11-17T02:31:41.573Z,4.88
2022-11-17T02:34:24.995Z,6.80
2022-11-17T02:37:00.304Z,1.25
2022-11-17T02:39:37.533Z,0.93
2022-11-17T02:42:11.467Z,0.65
2022-11-17T02:44:45.538Z,1.10
2022-11-17T02:47:18.253Z,2.17
2022-11-17T02:49:51.622Z,5.03
2022-11-17T02:52:21.509Z,0.40
2022-11-17T02:54:49.610Z,3.00
2022-11-17T02:57:30.597Z,1.23
2022-11-17T03:00:01.680Z,0.60
2022-11-17T03:02:41.582Z,1.45
2022-11-17T03:05:16.738Z,2.45
2022-11-17T03:08:01.937Z,0.32
2022-11-17T03:10:39.311Z,0.50
2022-11-17T03:13:13.850Z,1.33
2022-11-17T03:15:52.414Z,0.77
2022-11-17T03:18:24.782Z,4.90
2022-11-17T03:21:06.449Z,0.73
2022-11-17T03:23:40.711Z,0.30
2022-11-17T03:26:13.626Z,0.68
2022-11-17T03:28:44.072Z,2.63
2022-11-17T03:31:16.467Z,2.20
2022-11-17T03:33:48.310Z,0.10
2022-11-17T03:36:19.739Z,0.95
2022-11-17T03:38:53.093Z,0.20
2022-11-17T03:41:23.914Z,1.48
2022-11-17T03:43:55.824Z,0.90
2022-11-17T03:46:28.027Z,1.45
2022-11-17T03:49:00.731Z,3.03
2022-11-17T03:51:31.304Z,0.75
2022-11-17T03:53:59.341Z,0.75
2022-11-17T03:56:36.343Z,0.65
2022-11-17T03:59:10.710Z,3.72
2022-11-17T04:01:40.374Z,2.42
2022-11-17T04:04:08.366Z,0.35
2022-11-17T04:06:36.516Z,0.20
2022-11-17T04:09:04.547Z,1.05
2022-11-17T04:11:52.706Z,0.25
2022-11-17T04:14:38.012Z,0.30
2022-11-17T04:17:07.508Z,2.53
2022-11-17T04:19:35.497Z,3.13
2022-11-17T04:22:03.510Z,2.65
2022-11-17T04:24:31.591Z,1.65
2022-11-17T04:27:31.309Z,3.38
2022-11-17T04:29:59.347Z,0.95
2022-11-17T04:32:28.813Z,0.57
2022-11-17T04:34:56.764Z,1.40
2022-11-17T04:37:24.864Z,0.22
2022-11-17T04:39:52.884Z,1.60
2022-11-17T04:42:19.908Z,0.90
2022-11-17T04:44:47.899Z,4.47
2022-11-17T04:47:15.991Z,1.90
2022-11-17T04:49:45.436Z,2.80
2022-11-17T04:52:13.446Z,2.58
2022-11-17T04:54:41.539Z,4.97
2022-11-17T04:57:09.613Z,5.03
2022-11-17T04:59:37.943Z,3.95
2022-11-17T05:02:06.492Z,11.73
2022-11-17T05:04:51.706Z,0.98
2022-11-17T05:07:21.244Z,1.38
2022-11-17T05:09:49.371Z,1.33
2022-11-17T05:12:34.774Z,5.28
2022-11-17T05:15:03.039Z,3.58
2022-11-17T05:17:30.068Z,3.78
2022-11-17T05:19:58.468Z,1.50
2022-11-17T05:22:45.244Z,4.05
2022-11-17T05:25:13.357Z,3.70
2022-11-17T05:27:41.405Z,4.28
2022-11-17T05:30:10.853Z,2.72
2022-11-17T05:32:38.881Z,4.40
2022-11-17T05:35:07.976Z,3.03
2022-11-17T05:37:37.416Z,3.33
2022-11-17T05:40:06.189Z,2.92
2022-11-17T05:42:35.501Z,1.77
2022-11-17T05:45:03.512Z,6.43
2022-11-17T05:47:31.585Z,8.18
2022-11-17T05:49:59.546Z,4.82
2022-11-17T05:52:27.611Z,6.45
2022-11-17T05:54:57.048Z,6.00
2022-11-17T05:57:32.200Z,2.95
2022-11-17T06:00:05.134Z,10.13
2022-11-17T06:02:39.372Z,4.93
2022-11-17T06:05:08.885Z,3.95
2022-11-17T06:07:38.003Z,9.35
2022-11-17T06:10:08.182Z,7.57
2022-11-17T06:12:36.304Z,5.75
2022-11-17T06:15:04.547Z,9.82
2022-11-17T06:17:37.173Z,4.20
2022-11-17T06:20:09.096Z,7.35
2022-11-17T06:22:37.744Z,9.73
2022-11-17T06:25:09.677Z,6.82
2022-11-17T06:27:38.960Z,11.02
2022-11-17T06:30:08.204Z,9.20
2022-11-17T06:32:39.070Z,9.15
2022-11-17T06:35:09.972Z,6.20
2022-11-17T06:37:38.122Z,3.88
2022-11-17T06:40:07.067Z,4.43
2022-11-17T06:42:54.072Z,7.60
2022-11-17T06:45:22.178Z,7.30
2022-11-17T06:47:50.196Z,10.95
2022-11-17T06:50:18.635Z,9.82
2022-11-17T06:52:46.688Z,4.50
2022-11-17T06:55:14.683Z,6.00
2022-11-17T06:57:46.610Z,12.48
2022-11-17T07:00:19.547Z,7.80
2022-11-17T07:02:47.609Z,5.30
2022-11-17T07:05:15.688Z,7.10
2022-11-17T07:07:43.729Z,6.50
2022-11-17T07:10:11.960Z,7.25
2022-11-17T07:12:39.969Z,8.00
2022-11-17T07:15:10.253Z,6.32
2022-11-17T07:17:49.993Z,10.20
2022-11-17T07:20:19.358Z,11.63
2022-11-17T07:22:48.788Z,14.77
2022-11-17T07:25:23.282Z,9.45
2022-11-17T07:28:12.002Z,8.60
2022-11-17T07:30:41.519Z,7.40
2022-11-17T07:33:09.659Z,11.73
2022-11-17T07:49:28.918Z,10.48
2022-11-17T07:58:39.689Z,5.50
2022-11-17T08:01:45.309Z,11.23
2022-11-17T08:04:30.850Z,3.35
2022-11-17T08:10:05.829Z,4.57
2022-11-17T08:13:02.744Z,1.88
2022-11-17T08:15:39.455Z,4.53
2022-11-17T08:18:36.876Z,8.48
2022-11-17T08:21:19.320Z,11.52
2022-11-17T08:33:19.248Z,7.93
2022-11-17T08:35:47.695Z,11.63
2022-11-17T08:44:14.190Z,4.63
2022-11-17T08:47:24.978Z,1.65
2022-11-17T08:50:08.332Z,2.28
2022-11-17T08:52:36.813Z,3.58
2022-11-17T08:55:07.365Z,1.85
2022-11-17T08:57:35.566Z,4.03
2022-11-17T09:00:04.205Z,3.28
2022-11-17T09:02:32.271Z,3.40
2022-11-17T09:05:00.409Z,4.55
2022-11-17T09:07:34.559Z,6.78
2022-11-17T09:10:03.252Z,10.38
2022-11-17T09:12:32.751Z,8.70
2022-11-17T09:15:00.752Z,8.90
2022-11-17T09:17:28.826Z,9.35
2022-11-17T09:19:56.957Z,12.93
2022-11-17T09:22:24.991Z,10.65
2022-11-17T09:24:53.105Z,10.18
2022-11-17T09:30:56.078Z,9.30
2022-11-17T09:33:26.110Z,11.05
2022-11-17T09:36:42.172Z,12.02
2022-11-17T09:39:41.336Z,10.27
2022-11-17T09:42:29.426Z,14.05
2022-11-17T09:45:03.643Z,10.88
2022-11-17T09:48:06.997Z,12.40
2022-11-17T09:50:54.085Z,9.50
2022-11-17T09:53:46.771Z,5.38
2022-11-17T09:56:16.021Z,12.07
2022-11-17T09:58:49.904Z,16.02
2022-11-17T10:03:48.921Z,7.63
2022-11-17T10:06:22.029Z,23.08
2022-11-17T10:09:02.339Z,13.33
2022-11-17T10:11:33.085Z,17.05
2022-11-17T10:14:14.587Z,17.73
2022-11-17T10:16:54.564Z,15.75
2022-11-17T10:19:25.145Z,19.70
2022-11-17T10:22:12.596Z,14.18
2022-11-17T10:24:42.547Z,19.15
2022-11-17T10:27:25.623Z,18.50
2022-11-17T10:30:02.237Z,19.48
2022-11-17T10:32:34.335Z,17.83
2022-11-17T10:35:17.582Z,19.00
2022-11-17T10:37:56.684Z,11.70
2022-11-17T10:40:27.669Z,13.40
2022-11-17T10:43:01.386Z,22.33
2022-11-17T10:45:29.912Z,14.13
2022-11-17T10:48:11.631Z,19.58
2022-11-17T10:50:52.124Z,16.55
2022-11-17T10:54:03.559Z,18.90
2022-11-17T10:56:33.316Z,12.63
2022-11-17T10:59:05.373Z,17.00
2022-11-17T11:01:36.281Z,21.42
2022-11-17T11:04:07.267Z,18.25
2022-11-17T11:06:36.830Z,26.50
2022-11-17T11:09:13.041Z,18.77
2022-11-17T11:11:47.997Z,19.33
2022-11-17T11:14:25.750Z,15.07
2022-11-17T11:16:53.816Z,24.08
2022-11-17T11:19:22.417Z,29.25
2022-11-17T11:22:04.025Z,18.55
2022-11-17T11:24:49.916Z,22.15
2022-11-17T11:27:31.174Z,17.90
2022-11-17T11:34:28.664Z,24.13
2022-11-17T11:36:51.723Z,18.73
2022-11-17T11:42:09.438Z,43.70
2022-11-17T11:44:51.276Z,26.42
2022-11-17T11:47:35.005Z,16.95
2022-11-17T11:50:11.327Z,19.30
2022-11-17T11:52:45.439Z,20.80
2022-11-17T11:55:20.753Z,14.43
2022-11-17T11:57:56.699Z,36.40
2022-11-17T12:00:29.281Z,38.50
2022-11-17T12:03:05.724Z,11.93
2022-11-17T12:05:47.252Z,14.85
2022-11-17T12:08:24.439Z,22.08
2022-11-17T12:10:59.140Z,20.98
2022-11-17T12:13:30.468Z,21.58
2022-11-17T12:16:19.453Z,25.15
2022-11-17T12:18:47.605Z,21.70
2022-11-17T12:21:26.852Z,19.52
2022-11-17T12:24:11.607Z,19.17
2022-11-17T12:26:39.970Z,20.98
2022-11-17T12:29:33.128Z,14.98
2022-11-17T12:32:02.985Z,24.02
2022-11-17T12:39:58.429Z,14.70
2022-11-17T12:42:26.692Z,25.15
2022-11-17T12:45:01.689Z,14.27
2022-11-17T12:47:36.572Z,22.38
2022-11-17T12:50:23.360Z,25.35
2022-11-17T12:53:14.920Z,20.40
2022-11-17T12:56:02.408Z,15.05
2022-11-17T12:58:45.995Z,16.52
2022-11-17T13:01:24.133Z,21.65
2022-11-17T13:03:59.167Z,15.43
2022-11-17T13:06:35.364Z,16.20
2022-11-17T13:09:15.156Z,17.35
2022-11-17T13:11:43.307Z,10.10
2022-11-17T13:14:21.563Z,5.95
2022-11-17T13:16:54.909Z,6.22
2022-11-17T13:19:48.266Z,3.20
2022-11-17T13:22:19.262Z,6.20
2022-11-17T13:24:49.399Z,2.05
2022-11-17T13:27:23.541Z,6.60
2022-11-17T13:29:51.763Z,6.00
2022-11-17T13:32:23.947Z,8.05
2022-11-17T13:34:56.632Z,9.88
2022-11-17T13:37:26.544Z,4.47
2022-11-17T13:40:04.420Z,4.22
2022-11-17T13:43:06.135Z,16.48
2022-11-17T13:45:34.616Z,5.88
2022-11-17T13:48:45.023Z,9.43
2022-11-17T13:51:25.913Z,3.70
2022-11-17T13:53:56.564Z,5.53
2022-11-17T13:56:32.613Z,10.50
2022-11-17T13:59:03.653Z,5.53
2022-11-17T14:01:33.347Z,86.57
2022-11-17T14:04:20.340Z,35.25
2022-11-17T14:07:00.825Z,5.47
2022-11-17T14:09:30.886Z,6.00
2022-11-17T14:12:00.011Z,11.82
2022-11-17T14:14:35.749Z,5.65
2022-11-17T14:17:14.551Z,18.40
2022-11-17T14:19:53.295Z,12.00
2022-11-17T14:22:31.702Z,12.77
2022-11-17T14:25:02.051Z,5.95
2022-11-17T14:27:41.264Z,4.65
2022-11-17T14:30:17.504Z,7.10
2022-11-17T14:32:48.579Z,12.30
2022-11-17T14:37:56.589Z,9.05
2022-11-17T14:40:25.404Z,6.60
2022-11-17T14:42:53.503Z,5.07
2022-11-17T14:45:21.502Z,8.45
2022-11-17T14:47:50.190Z,2.40
2022-11-17T14:50:22.041Z,7.75
2022-11-17T14:52:51.825Z,17.00
2022-11-17T14:55:22.005Z,9.20
2022-11-17T14:57:51.716Z,6.47
2022-11-17T15:00:21.335Z,2.92
2022-11-17T15:02:51.479Z,2.88
2022-11-17T15:05:20.975Z,3.22
2022-11-17T15:07:49.434Z,5.90
2022-11-17T15:10:18.311Z,1.30
2022-11-17T15:12:46.416Z,5.75
2022-11-17T15:15:15.408Z,9.05
2022-11-17T15:17:44.558Z,3.83
2022-11-17T15:20:13.556Z,4.35
2022-11-17T15:22:43.807Z,3.40
2022-11-17T15:25:12.255Z,4.20
2022-11-17T15:27:40.255Z,4.57
2022-11-17T15:30:09.624Z,2.80
2022-11-17T15:32:38.100Z,4.30
2022-11-17T15:35:06.748Z,4.68
2022-11-17T15:37:34.822Z,4.22
2022-11-17T15:40:04.377Z,5.68
2022-11-17T15:42:32.596Z,2.28
2022-11-17T15:45:00.605Z,7.15
2022-11-17T15:47:28.621Z,5.50
2022-11-17T15:49:58.665Z,4.30
2022-11-17T15:52:48.852Z,3.55
2022-11-17T15:55:16.151Z,3.90
2022-11-17T15:57:44.235Z,5.28
2022-11-17T16:00:18.723Z,7.38
2022-11-17T16:02:46.844Z,2.40
2022-11-17T16:05:15.025Z,3.38
2022-11-17T16:07:43.151Z,3.28
2022-11-17T16:10:12.863Z,13.82
2022-11-17T16:12:43.056Z,9.45
2022-11-17T16:15:11.704Z,3.78
2022-11-17T16:17:39.679Z,3.22
2022-11-17T16:20:09.187Z,6.18
2022-11-17T16:22:37.304Z,6.65
2022-11-17T16:25:07.294Z,4.32
2022-11-17T16:27:35.334Z,4.05
2022-11-17T16:30:06.049Z,3.20
2022-11-17T16:32:35.570Z,5.85
2022-11-17T16:35:03.668Z,3.30
2022-11-17T16:37:31.809Z,10.55
2022-11-17T16:40:01.472Z,5.40
2022-11-17T16:42:29.516Z,9.73
2022-11-17T16:45:01.051Z,6.03
2022-11-17T16:47:30.520Z,8.10
2022-11-17T16:49:58.644Z,7.47
2022-11-17T16:52:29.839Z,8.95
2022-11-17T16:55:03.262Z,5.18
2022-11-17T16:57:32.823Z,5.47
2022-11-17T17:00:00.878Z,5.38
2022-11-17T17:02:30.448Z,7.95
2022-11-17T17:04:58.525Z,6.88
2022-11-17T17:07:26.700Z,3.65
2022-11-17T17:09:54.841Z,8.63
2022-11-17T17:12:22.882Z,4.63
2022-11-17T17:14:50.873Z,4.57
2022-11-17T17:17:18.921Z,4.97
2022-11-17T17:20:50.807Z,2.88
2022-11-17T17:24:17.257Z,4.53
2022-11-17T17:27:43.912Z,2.15
2022-11-17T17:31:13.424Z,2.58
2022-11-17T17:34:43.804Z,3.08
2022-11-17T17:38:11.705Z,0.73
2022-11-17T17:41:39.740Z,4.20
2022-11-17T17:45:07.393Z,1.25
2022-11-17T17:48:34.376Z,1.25
2022-11-17T17:52:01.289Z,3.00
2022-11-17T17:55:32.560Z,1.33
2022-11-17T17:58:11.045Z,1.65
2022-11-17T18:01:08.732Z,4.50
2022-11-17T18:04:35.403Z,1.65
2022-11-17T18:07:34.684Z,1.65
2022-11-17T18:10:04.180Z,1.85
2022-11-17T18:12:32.245Z,3.20
2022-11-17T18:15:00.282Z,1.40
2022-11-17T18:17:28.363Z,1.92
2022-11-17T18:19:56.401Z,2.10
2022-11-17T18:22:24.392Z,2.60
2022-11-17T18:24:55.954Z,2.17
2022-11-17T18:27:27.600Z,1.17
2022-11-17T18:29:55.614Z,2.22
2022-11-17T18:32:23.887Z,2.85
2022-11-17T18:34:51.909Z,1.92
2022-11-17T18:37:19.936Z,1.40
2022-11-17T18:39:48.612Z,3.40
2022-11-17T18:42:16.651Z,2.78
2022-11-17T18:44:46.075Z,1.10
2022-11-17T18:47:15.316Z,3.25
2022-11-17T18:49:43.295Z,2.00
2022-11-17T18:52:11.639Z,3.67
2022-11-17T18:54:39.773Z,5.78
2022-11-17T18:57:08.423Z,2.13
2022-11-17T18:59:36.419Z,1.27
2022-11-17T19:02:05.810Z,1.10
2022-11-17T19:04:33.849Z,2.33
2022-11-17T19:07:01.926Z,0.95
2022-11-17T19:09:29.947Z,0.63
2022-11-17T19:11:57.947Z,1.85
2022-11-17T19:14:25.956Z,3.13
2022-11-17T19:16:55.449Z,0.10
2022-11-17T19:19:24.840Z,1.90
2022-11-17T19:21:53.048Z,0.28
2022-11-17T19:24:21.918Z,1.27
2022-11-17T19:26:50.124Z,0.95
2022-11-17T19:29:18.266Z,0.60
2022-11-17T19:31:46.953Z,2.50
2022-11-17T19:34:15.328Z,0.20
2022-11-17T19:36:45.692Z,0.38
2022-11-17T19:39:15.219Z,0.35
2022-11-17T19:41:45.177Z,1.23
2022-11-17T19:44:13.429Z,0.82
2022-11-17T19:46:41.525Z,1.17
2022-11-17T19:49:09.730Z,5.78
2022-11-17T19:51:38.437Z,0.73
2022-11-17T19:54:09.350Z,0.38
2022-11-17T19:56:38.498Z,3.30
2022-11-17T19:59:10.988Z,0.93
2022-11-17T20:01:44.082Z,0.95
2022-11-17T20:04:12.108Z,3.60
2022-11-17T20:06:41.080Z,0.90
2022-11-17T20:09:12.909Z,0.88
2022-11-17T20:11:41.644Z,0.30
2022-11-17T20:14:09.979Z,1.00
2022-11-17T20:16:39.121Z,1.35
2022-11-17T20:19:07.504Z,0.77
2022-11-17T20:21:35.511Z,1.65
2022-11-17T20:24:03.658Z,0.45
2022-11-17T20:26:35.276Z,0.90
2022-11-17T20:29:03.332Z,0.10
2022-11-17T20:31:33.552Z,0.25
2022-11-17T20:34:02.963Z,1.60
2022-11-17T20:36:33.193Z,0.30
2022-11-17T20:39:02.906Z,0.30
2022-11-17T20:41:32.606Z,0.50
2022-11-17T20:44:01.977Z,0.88
2022-11-17T20:46:30.453Z,1.15
2022-11-17T20:48:58.529Z,2.47
2022-11-17T20:51:27.051Z,3.50
2022-11-17T20:53:55.061Z,0.30
2022-11-17T20:56:23.124Z,0.68
2022-11-17T20:58:52.570Z,0.68
2022-11-17T21:01:23.188Z,0.82
2022-11-17T21:03:51.536Z,0.73
2022-11-17T21:06:20.289Z,1.85
2022-11-17T21:08:48.309Z,1.40
2022-11-17T21:11:37.989Z,0.95
2022-11-17T21:14:09.244Z,5.57
2022-11-17T21:16:39.006Z,0.50
2022-11-17T21:19:07.190Z,0.77
2022-11-17T21:21:35.313Z,1.58
2022-11-17T21:24:03.558Z,0.95
2022-11-17T21:26:32.375Z,3.00
2022-11-17T21:29:06.215Z,1.10
2022-11-17T21:31:36.781Z,1.55
2022-11-17T21:34:06.654Z,8.23
2022-11-17T21:36:36.712Z,1.45
2022-11-17T21:39:05.421Z,2.35
2022-11-17T21:41:38.151Z,1.60
2022-11-17T21:44:06.966Z,0.65
2022-11-17T21:46:37.213Z,2.35
2022-11-17T21:49:05.557Z,3.00
2022-11-17T21:51:38.466Z,1.52
2022-11-17T21:54:09.923Z,0.73
2022-11-17T21:56:38.190Z,0.95
2022-11-17T21:59:08.681Z,1.27
2022-11-17T22:01:45.173Z,2.28
2022-11-17T22:04:19.327Z,0.60
2022-11-17T22:06:47.440Z,1.40
2022-11-17T22:09:15.810Z,2.20
2022-11-17T22:11:44.089Z,3.33
2022-11-17T22:14:14.320Z,2.15
2022-11-17T22:16:45.631Z,2.08
2022-11-17T22:19:15.241Z,2.13
2022-11-17T22:21:43.892Z,1.98
2022-11-17T22:24:13.590Z,1.13
2022-11-17T22:26:43.532Z,0.32
2022-11-17T22:29:14.624Z,1.15
2022-11-17T22:31:44.674Z,0.55
2022-11-17T22:34:12.684Z,3.33
2022-11-17T22:36:40.790Z,1.35
2022-11-17T22:39:09.380Z,0.43
2022-11-17T22:41:37.657Z,0.77
2022-11-17T22:44:06.540Z,3.33
2022-11-17T22:46:36.123Z,4.38
2022-11-17T22:49:05.510Z,1.52
2022-11-17T22:51:51.191Z,1.33
2022-11-17T22:54:19.187Z,1.40
2022-11-17T22:56:47.401Z,1.10
2022-11-17T22:59:16.587Z,5.30
2022-11-17T23:01:44.843Z,3.70
2022-11-17T23:04:15.633Z,2.55
2022-11-17T23:06:43.754Z,2.72
2022-11-17T23:09:12.267Z,3.78
2022-11-17T23:11:40.503Z,2.10
2022-11-17T23:14:10.840Z,2.95
2022-11-17T23:16:39.083Z,3.70
2022-11-17T23:19:09.600Z,4.25
2022-11-17T23:21:39.088Z,0.82
2022-11-17T23:24:09.480Z,3.40
2022-11-17T23:26:37.529Z,2.65
2022-11-17T23:29:05.695Z,2.95
2022-11-17T23:31:33.708Z,1.73
2022-11-17T23:34:01.825Z,2.67
2022-11-17T23:36:30.350Z,2.50
2022-11-17T23:38:59.852Z,0.88
2022-11-17T23:41:28.893Z,4.35
2022-11-17T23:43:57.020Z,1.60
2022-11-17T23:46:26.662Z,4.07
2022-11-17T23:48:57.050Z,2.67
2022-11-17T23:51:29.957Z,3.90
2022-11-17T23:54:00.943Z,5.33
2022-11-17T23:56:32.329Z,2.30
2022-11-17T23:59:00.330Z,1.50
